Bennington, New Hampshire
Current Conditions -  °F | °C
As of 8:52 PM on Friday 21 Nov 2014 (Local Time) from KAFN Reporting Station
Clear Clear  
Wind Chill: 13°   Ceiling: Unl
Heat Index: 22°   Visibility: 10mi
Dew Point:   Wind: 7mph
Humidity: 44%   Direction: NA
Pressure: 30.33"   Gusts: NA
Location:  43°N, 71.92°W
Report Text: KAFN 220152Z AUTO VRB06KT 10SM CLR M06/M16 A3033 RMK AO2 SLP294 T10561161
Loading
Personal Weather Stations






























Interactive Weather Map New forecast layout! Learn more

10-Day Weather Forecast

Advertisements
Track Severe Weather on mobile